Augsburg, Illinois
Current Conditions -  °F | °C
As of 8:55 PM on Tuesday 21 Oct 2014 (Local Time) from KSLO Reporting Station
Clear Clear  
Wind Chill: 11°   Ceiling: Unl
Heat Index: 11°   Visibility: 10mi
Dew Point:   Wind: 5mph
Humidity: 73%   Direction: 40°NE
Pressure: 30.18"   Gusts: NA
Location:  38.8463°N, 89.0894°W
Report Text: KSLO 220155Z AUTO 04004KT 10SM CLR 11/06 A3018 RMK AO2 T01070060
Loading
Personal Weather Stations






























Interactive Weather Map New forecast layout! Learn more

10-Day Weather Forecast

Advertisements
Track Severe Weather on mobile